sensor_id;sensor_type;location;lat;lon;timestamp;temperature;humidity
67196;DHT22;54122;53.538;49.366;2022-09-02T00:00:23;17.80;92.30
67196;DHT22;54122;53.538;49.366;2022-09-02T00:02:49;17.90;92.30
67196;DHT22;54122;53.538;49.366;2022-09-02T00:05:16;17.90;92.30
67196;DHT22;54122;53.538;49.366;2022-09-02T00:07:42;17.90;92.20
67196;DHT22;54122;53.538;49.366;2022-09-02T00:10:08;17.90;92.20
67196;DHT22;54122;53.538;49.366;2022-09-02T00:12:34;17.90;92.60
67196;DHT22;54122;53.538;49.366;2022-09-02T00:15:00;17.90;92.40
67196;DHT22;54122;53.538;49.366;2022-09-02T00:17:26;17.90;92.30
67196;DHT22;54122;53.538;49.366;2022-09-02T00:19:52;17.90;92.40
67196;DHT22;54122;53.538;49.366;2022-09-02T00:22:19;17.90;92.40
67196;DHT22;54122;53.538;49.366;2022-09-02T00:24:45;18.00;92.30
67196;DHT22;54122;53.538;49.366;2022-09-02T00:27:11;18.00;92.30
67196;DHT22;54122;53.538;49.366;2022-09-02T00:29:37;18.00;92.30
67196;DHT22;54122;53.538;49.366;2022-09-02T00:32:04;18.00;92.30
67196;DHT22;54122;53.538;49.366;2022-09-02T00:34:30;18.00;92.30
67196;DHT22;54122;53.538;49.366;2022-09-02T00:36:57;18.00;92.30
67196;DHT22;54122;53.538;49.366;2022-09-02T00:39:23;18.00;92.20
67196;DHT22;54122;53.538;49.366;2022-09-02T00:41:50;18.00;92.30
67196;DHT22;54122;53.538;49.366;2022-09-02T00:44:18;18.10;92.10
67196;DHT22;54122;53.538;49.366;2022-09-02T00:46:44;18.10;91.80
67196;DHT22;54122;53.538;49.366;2022-09-02T00:54:28;18.00;91.70
67196;DHT22;54122;53.538;49.366;2022-09-02T00:56:55;18.00;91.80
67196;DHT22;54122;53.538;49.366;2022-09-02T00:59:42;18.10;91.50
67196;DHT22;54122;53.538;49.366;2022-09-02T01:02:10;18.00;91.40
67196;DHT22;54122;53.538;49.366;2022-09-02T01:04:36;18.00;91.60
67196;DHT22;54122;53.538;49.366;2022-09-02T01:07:02;18.10;91.50
67196;DHT22;54122;53.538;49.366;2022-09-02T01:09:29;18.10;91.30
67196;DHT22;54122;53.538;49.366;2022-09-02T01:11:58;18.10;91.20
67196;DHT22;54122;53.538;49.366;2022-09-02T01:14:24;18.10;91.00
67196;DHT22;54122;53.538;49.366;2022-09-02T01:16:52;18.10;91.10
67196;DHT22;54122;53.538;49.366;2022-09-02T01:19:21;18.10;90.80
67196;DHT22;54122;53.538;49.366;2022-09-02T01:21:51;18.10;90.70
67196;DHT22;54122;53.538;49.366;2022-09-02T01:24:18;18.10;90.30
67196;DHT22;54122;53.538;49.366;2022-09-02T01:26:44;18.10;90.50
67196;DHT22;54122;53.538;49.366;2022-09-02T01:29:11;18.10;90.60
67196;DHT22;54122;53.538;49.366;2022-09-02T01:31:37;18.10;90.60
67196;DHT22;54122;53.538;49.366;2022-09-02T01:34:03;18.10;90.60
67196;DHT22;54122;53.538;49.366;2022-09-02T01:36:32;18.10;90.60
67196;DHT22;54122;53.538;49.366;2022-09-02T01:38:58;18.10;90.60
67196;DHT22;54122;53.538;49.366;2022-09-02T01:41:24;18.10;90.60
67196;DHT22;54122;53.538;49.366;2022-09-02T01:43:50;18.00;89.60
67196;DHT22;54122;53.538;49.366;2022-09-02T01:46:16;17.90;90.20
67196;DHT22;54122;53.538;49.366;2022-09-02T01:48:43;17.80;90.50
67196;DHT22;54122;53.538;49.366;2022-09-02T01:51:09;17.70;90.70
67196;DHT22;54122;53.538;49.366;2022-09-02T01:53:40;17.70;90.70
67196;DHT22;54122;53.538;49.366;2022-09-02T01:56:06;17.70;90.60
67196;DHT22;54122;53.538;49.366;2022-09-02T01:58:32;17.80;90.80
67196;DHT22;54122;53.538;49.366;2022-09-02T02:00:58;17.80;90.80
67196;DHT22;54122;53.538;49.366;2022-09-02T02:03:24;17.90;90.60
67196;DHT22;54122;53.538;49.366;2022-09-02T02:05:50;17.90;90.40
67196;DHT22;54122;53.538;49.366;2022-09-02T02:08:16;17.90;90.30
67196;DHT22;54122;53.538;49.366;2022-09-02T02:10:42;17.90;90.30
67196;DHT22;54122;53.538;49.366;2022-09-02T02:13:09;18.00;90.20
67196;DHT22;54122;53.538;49.366;2022-09-02T02:15:35;18.00;90.10
67196;DHT22;54122;53.538;49.366;2022-09-02T02:18:02;18.00;90.00
67196;DHT22;54122;53.538;49.366;2022-09-02T02:20:28;18.00;90.00
67196;DHT22;54122;53.538;49.366;2022-09-02T02:22:54;17.90;90.00
67196;DHT22;54122;53.538;49.366;2022-09-02T02:25:20;18.00;90.00
67196;DHT22;54122;53.538;49.366;2022-09-02T02:27:46;18.00;89.60
67196;DHT22;54122;53.538;49.366;2022-09-02T02:30:14;18.00;89.60
67196;DHT22;54122;53.538;49.366;2022-09-02T02:32:40;18.00;89.20
67196;DHT22;54122;53.538;49.366;2022-09-02T02:35:06;18.00;89.20
67196;DHT22;54122;53.538;49.366;2022-09-02T02:37:32;18.10;89.00
67196;DHT22;54122;53.538;49.366;2022-09-02T02:39:58;18.10;88.70
67196;DHT22;54122;53.538;49.366;2022-09-02T02:42:24;18.10;88.50
67196;DHT22;54122;53.538;49.366;2022-09-02T02:44:50;18.20;88.40
67196;DHT22;54122;53.538;49.366;2022-09-02T02:47:16;18.20;88.00
67196;DHT22;54122;53.538;49.366;2022-09-02T02:49:43;18.30;87.30
67196;DHT22;54122;53.538;49.366;2022-09-02T02:52:09;18.30;86.30
67196;DHT22;54122;53.538;49.366;2022-09-02T02:54:36;18.30;86.30
67196;DHT22;54122;53.538;49.366;2022-09-02T02:57:02;18.30;86.30
67196;DHT22;54122;53.538;49.366;2022-09-02T02:59:29;18.40;85.90
67196;DHT22;54122;53.538;49.366;2022-09-02T03:01:55;18.40;85.60
67196;DHT22;54122;53.538;49.366;2022-09-02T03:04:21;18.40;85.30
67196;DHT22;54122;53.538;49.366;2022-09-02T03:06:47;18.40;85.10
67196;DHT22;54122;53.538;49.366;2022-09-02T03:09:13;18.40;84.90
67196;DHT22;54122;53.538;49.366;2022-09-02T03:11:39;18.50;83.80
67196;DHT22;54122;53.538;49.366;2022-09-02T03:14:05;18.50;83.90
67196;DHT22;54122;53.538;49.366;2022-09-02T03:16:33;18.60;83.20
67196;DHT22;54122;53.538;49.366;2022-09-02T03:18:59;18.60;82.60
67196;DHT22;54122;53.538;49.366;2022-09-02T03:21:25;18.60;82.10
67196;DHT22;54122;53.538;49.366;2022-09-02T03:23:51;18.60;81.90
67196;DHT22;54122;53.538;49.366;2022-09-02T03:26:19;18.70;81.60
67196;DHT22;54122;53.538;49.366;2022-09-02T03:28:45;18.70;80.40
67196;DHT22;54122;53.538;49.366;2022-09-02T03:31:13;18.70;80.20
67196;DHT22;54122;53.538;49.366;2022-09-02T03:33:40;18.70;79.70
67196;DHT22;54122;53.538;49.366;2022-09-02T03:36:06;18.70;79.40
67196;DHT22;54122;53.538;49.366;2022-09-02T03:38:33;18.80;78.70
67196;DHT22;54122;53.538;49.366;2022-09-02T03:40:59;18.80;77.60
67196;DHT22;54122;53.538;49.366;2022-09-02T03:43:25;18.80;77.40
67196;DHT22;54122;53.538;49.366;2022-09-02T03:45:51;18.90;77.50
67196;DHT22;54122;53.538;49.366;2022-09-02T03:48:17;18.90;77.50
67196;DHT22;54122;53.538;49.366;2022-09-02T03:50:44;18.90;77.60
67196;DHT22;54122;53.538;49.366;2022-09-02T03:53:12;19.00;77.60
67196;DHT22;54122;53.538;49.366;2022-09-02T03:55:38;18.90;77.30
67196;DHT22;54122;53.538;49.366;2022-09-02T03:58:05;19.00;77.40
67196;DHT22;54122;53.538;49.366;2022-09-02T04:00:31;19.00;77.50
67196;DHT22;54122;53.538;49.366;2022-09-02T04:02:58;19.10;77.70
67196;DHT22;54122;53.538;49.366;2022-09-02T04:05:26;19.10;77.70
67196;DHT22;54122;53.538;49.366;2022-09-02T04:07:52;19.20;77.60
67196;DHT22;54122;53.538;49.366;2022-09-02T04:10:19;19.30;76.30
67196;DHT22;54122;53.538;49.366;2022-09-02T04:12:46;19.30;74.00
67196;DHT22;54122;53.538;49.366;2022-09-02T04:15:13;19.20;70.70
67196;DHT22;54122;53.538;49.366;2022-09-02T04:17:39;19.10;70.20
67196;DHT22;54122;53.538;49.366;2022-09-02T04:20:07;19.20;69.50
67196;DHT22;54122;53.538;49.366;2022-09-02T04:22:34;19.20;68.80
67196;DHT22;54122;53.538;49.366;2022-09-02T04:25:00;19.20;68.30
67196;DHT22;54122;53.538;49.366;2022-09-02T04:27:26;19.20;68.30
67196;DHT22;54122;53.538;49.366;2022-09-02T04:29:52;19.20;67.00
67196;DHT22;54122;53.538;49.366;2022-09-02T04:32:18;19.30;67.30
67196;DHT22;54122;53.538;49.366;2022-09-02T04:34:47;19.40;66.10
67196;DHT22;54122;53.538;49.366;2022-09-02T04:37:13;19.50;66.10
67196;DHT22;54122;53.538;49.366;2022-09-02T04:39:39;19.70;65.10
67196;DHT22;54122;53.538;49.366;2022-09-02T04:42:05;19.70;63.60
67196;DHT22;54122;53.538;49.366;2022-09-02T04:44:32;19.80;63.50
67196;DHT22;54122;53.538;49.366;2022-09-02T04:46:58;19.80;63.40
67196;DHT22;54122;53.538;49.366;2022-09-02T04:49:24;19.70;63.20
67196;DHT22;54122;53.538;49.366;2022-09-02T04:51:50;19.60;63.30
67196;DHT22;54122;53.538;49.366;2022-09-02T04:54:19;19.40;63.30
67196;DHT22;54122;53.538;49.366;2022-09-02T04:56:45;19.30;64.30
67196;DHT22;54122;53.538;49.366;2022-09-02T04:59:11;19.70;65.80
67196;DHT22;54122;53.538;49.366;2022-09-02T05:01:37;21.00;63.10
67196;DHT22;54122;53.538;49.366;2022-09-02T05:04:04;22.30;59.40
67196;DHT22;54122;53.538;49.366;2022-09-02T05:06:31;23.60;54.10
67196;DHT22;54122;53.538;49.366;2022-09-02T05:08:58;25.00;50.40
67196;DHT22;54122;53.538;49.366;2022-09-02T05:11:25;26.00;46.30
67196;DHT22;54122;53.538;49.366;2022-09-02T05:13:55;26.90;45.50
67196;DHT22;54122;53.538;49.366;2022-09-02T05:16:23;27.70;43.10
67196;DHT22;54122;53.538;49.366;2022-09-02T05:18:51;28.20;41.20
67196;DHT22;54122;53.538;49.366;2022-09-02T05:21:17;28.70;39.30
67196;DHT22;54122;53.538;49.366;2022-09-02T05:23:43;28.70;39.70
67196;DHT22;54122;53.538;49.366;2022-09-02T05:26:10;29.10;37.70
67196;DHT22;54122;53.538;49.366;2022-09-02T05:28:38;29.50;34.50
67196;DHT22;54122;53.538;49.366;2022-09-02T05:31:04;29.40;34.10
67196;DHT22;54122;53.538;49.366;2022-09-02T05:33:31;29.60;33.40
67196;DHT22;54122;53.538;49.366;2022-09-02T05:35:57;29.70;32.60
67196;DHT22;54122;53.538;49.366;2022-09-02T05:38:24;29.60;32.00
67196;DHT22;54122;53.538;49.366;2022-09-02T05:40:50;29.60;32.10
67196;DHT22;54122;53.538;49.366;2022-09-02T05:43:16;29.70;31.40
67196;DHT22;54122;53.538;49.366;2022-09-02T05:45:42;29.80;31.00
67196;DHT22;54122;53.538;49.366;2022-09-02T05:48:08;30.10;31.20
67196;DHT22;54122;53.538;49.366;2022-09-02T05:50:52;30.30;30.00
67196;DHT22;54122;53.538;49.366;2022-09-02T05:53:18;30.20;28.90
67196;DHT22;54122;53.538;49.366;2022-09-02T05:55:44;30.30;29.50
67196;DHT22;54122;53.538;49.366;2022-09-02T05:58:10;30.70;29.30
67196;DHT22;54122;53.538;49.366;2022-09-02T06:00:36;31.10;29.30
67196;DHT22;54122;53.538;49.366;2022-09-02T06:03:03;31.30;27.50
67196;DHT22;54122;53.538;49.366;2022-09-02T06:05:29;31.40;27.50
67196;DHT22;54122;53.538;49.366;2022-09-02T06:07:55;31.60;27.60
67196;DHT22;54122;53.538;49.366;2022-09-02T06:10:22;31.90;27.40
67196;DHT22;54122;53.538;49.366;2022-09-02T06:12:48;32.10;26.80
67196;DHT22;54122;53.538;49.366;2022-09-02T06:15:15;32.00;24.90
67196;DHT22;54122;53.538;49.366;2022-09-02T06:17:42;31.70;24.00
67196;DHT22;54122;53.538;49.366;2022-09-02T06:20:08;31.40;24.00
67196;DHT22;54122;53.538;49.366;2022-09-02T06:22:34;31.10;24.00
67196;DHT22;54122;53.538;49.366;2022-09-02T06:25:00;31.10;23.70
67196;DHT22;54122;53.538;49.366;2022-09-02T06:27:26;31.00;24.00
67196;DHT22;54122;53.538;49.366;2022-09-02T06:29:52;30.70;24.60
67196;DHT22;54122;53.538;49.366;2022-09-02T06:32:18;30.30;25.30
67196;DHT22;54122;53.538;49.366;2022-09-02T06:34:45;30.10;26.00
67196;DHT22;54122;53.538;49.366;2022-09-02T06:37:11;30.20;26.60
67196;DHT22;54122;53.538;49.366;2022-09-02T06:39:36;30.50;26.50
67196;DHT22;54122;53.538;49.366;2022-09-02T06:42:03;30.60;25.80
67196;DHT22;54122;53.538;49.366;2022-09-02T06:44:29;30.30;25.50
67196;DHT22;54122;53.538;49.366;2022-09-02T06:46:56;30.10;25.90
67196;DHT22;54122;53.538;49.366;2022-09-02T06:49:24;30.40;25.90
67196;DHT22;54122;53.538;49.366;2022-09-02T06:51:51;30.90;25.00
67196;DHT22;54122;53.538;49.366;2022-09-02T06:54:18;31.30;24.50
67196;DHT22;54122;53.538;49.366;2022-09-02T06:56:44;31.50;24.20
67196;DHT22;54122;53.538;49.366;2022-09-02T06:59:10;31.70;24.30
67196;DHT22;54122;53.538;49.366;2022-09-02T07:01:36;31.90;23.90
67196;DHT22;54122;53.538;49.366;2022-09-02T07:04:03;31.70;23.10
67196;DHT22;54122;53.538;49.366;2022-09-02T07:06:49;31.00;23.90
67196;DHT22;54122;53.538;49.366;2022-09-02T07:09:18;30.70;24.10
67196;DHT22;54122;53.538;49.366;2022-09-02T07:11:45;30.50;23.80
67196;DHT22;54122;53.538;49.366;2022-09-02T07:14:21;30.30;24.10
67196;DHT22;54122;53.538;49.366;2022-09-02T07:16:49;30.00;23.70
67196;DHT22;54122;53.538;49.366;2022-09-02T07:19:16;29.80;24.20
67196;DHT22;54122;53.538;49.366;2022-09-02T07:21:42;29.90;23.70
67196;DHT22;54122;53.538;49.366;2022-09-02T07:24:08;30.20;24.00
67196;DHT22;54122;53.538;49.366;2022-09-02T07:26:35;30.20;23.90
67196;DHT22;54122;53.538;49.366;2022-09-02T07:29:02;30.70;23.60
67196;DHT22;54122;53.538;49.366;2022-09-02T07:31:28;30.70;23.20
67196;DHT22;54122;53.538;49.366;2022-09-02T07:33:55;30.70;23.60
67196;DHT22;54122;53.538;49.366;2022-09-02T07:36:26;30.70;23.30
67196;DHT22;54122;53.538;49.366;2022-09-02T07:38:52;30.70;23.10
67196;DHT22;54122;53.538;49.366;2022-09-02T07:41:19;30.80;22.50
67196;DHT22;54122;53.538;49.366;2022-09-02T07:43:45;30.70;22.60
67196;DHT22;54122;53.538;49.366;2022-09-02T07:46:11;30.60;22.90
67196;DHT22;54122;53.538;49.366;2022-09-02T07:48:38;30.80;23.00
67196;DHT22;54122;53.538;49.366;2022-09-02T07:51:04;30.80;21.80
67196;DHT22;54122;53.538;49.366;2022-09-02T07:53:30;31.00;21.70
67196;DHT22;54122;53.538;49.366;2022-09-02T07:55:57;31.00;21.60
67196;DHT22;54122;53.538;49.366;2022-09-02T07:58:24;30.70;21.80
67196;DHT22;54122;53.538;49.366;2022-09-02T08:00:51;30.60;22.60
67196;DHT22;54122;53.538;49.366;2022-09-02T08:03:17;30.50;22.90
67196;DHT22;54122;53.538;49.366;2022-09-02T08:05:44;30.60;22.60
67196;DHT22;54122;53.538;49.366;2022-09-02T08:08:12;30.70;22.40
67196;DHT22;54122;53.538;49.366;2022-09-02T08:10:38;30.90;22.20
67196;DHT22;54122;53.538;49.366;2022-09-02T08:13:04;30.90;21.60
67196;DHT22;54122;53.538;49.366;2022-09-02T08:15:31;30.60;22.10
67196;DHT22;54122;53.538;49.366;2022-09-02T08:17:58;30.30;22.40
67196;DHT22;54122;53.538;49.366;2022-09-02T08:20:24;29.80;22.90
67196;DHT22;54122;53.538;49.366;2022-09-02T08:22:50;29.80;22.80
67196;DHT22;54122;53.538;49.366;2022-09-02T08:25:16;30.00;23.10
67196;DHT22;54122;53.538;49.366;2022-09-02T08:27:43;30.30;22.30
67196;DHT22;54122;53.538;49.366;2022-09-02T08:30:10;30.10;22.40
67196;DHT22;54122;53.538;49.366;2022-09-02T08:32:37;30.00;22.80
67196;DHT22;54122;53.538;49.366;2022-09-02T08:35:04;30.30;22.90
67196;DHT22;54122;53.538;49.366;2022-09-02T08:37:31;30.70;22.20
67196;DHT22;54122;53.538;49.366;2022-09-02T08:39:58;30.90;21.60
67196;DHT22;54122;53.538;49.366;2022-09-02T08:42:28;31.20;21.40
67196;DHT22;54122;53.538;49.366;2022-09-02T08:44:57;31.40;20.90
67196;DHT22;54122;53.538;49.366;2022-09-02T08:47:26;31.20;20.50
67196;DHT22;54122;53.538;49.366;2022-09-02T08:49:56;30.90;20.60
67196;DHT22;54122;53.538;49.366;2022-09-02T08:52:29;30.50;20.60
67196;DHT22;54122;53.538;49.366;2022-09-02T08:54:57;30.40;20.80
67196;DHT22;54122;53.538;49.366;2022-09-02T08:57:23;30.20;21.10
67196;DHT22;54122;53.538;49.366;2022-09-02T08:59:55;29.80;21.20
67196;DHT22;54122;53.538;49.366;2022-09-02T09:02:28;29.50;21.60
67196;DHT22;54122;53.538;49.366;2022-09-02T09:13:03;29.10;21.60
67196;DHT22;54122;53.538;49.366;2022-09-02T09:18:04;29.50;21.40
67196;DHT22;54122;53.538;49.366;2022-09-02T09:20:34;29.20;21.30
67196;DHT22;54122;53.538;49.366;2022-09-02T09:23:05;28.90;21.60
67196;DHT22;54122;53.538;49.366;2022-09-02T09:25:34;28.50;22.30
67196;DHT22;54122;53.538;49.366;2022-09-02T09:28:01;28.50;23.00
67196;DHT22;54122;53.538;49.366;2022-09-02T09:30:27;28.40;23.40
67196;DHT22;54122;53.538;49.366;2022-09-02T09:32:57;28.40;23.50
67196;DHT22;54122;53.538;49.366;2022-09-02T09:35:25;28.10;23.80
67196;DHT22;54122;53.538;49.366;2022-09-02T09:37:52;27.70;24.00
67196;DHT22;54122;53.538;49.366;2022-09-02T09:42:49;26.70;25.90
67196;DHT22;54122;53.538;49.366;2022-09-02T09:45:21;26.30;25.80
67196;DHT22;54122;53.538;49.366;2022-09-02T09:48:36;26.00;26.50
67196;DHT22;54122;53.538;49.366;2022-09-02T09:50:37;25.90;26.80
67196;DHT22;54122;53.538;49.366;2022-09-02T09:53:19;25.90;26.40
67196;DHT22;54122;53.538;49.366;2022-09-02T09:55:49;25.70;26.10
67196;DHT22;54122;53.538;49.366;2022-09-02T09:58:16;25.40;26.30
67196;DHT22;54122;53.538;49.366;2022-09-02T10:00:42;25.20;26.80
67196;DHT22;54122;53.538;49.366;2022-09-02T10:03:08;24.80;27.40
67196;DHT22;54122;53.538;49.366;2022-09-02T10:05:43;24.70;28.10
67196;DHT22;54122;53.538;49.366;2022-09-02T10:08:19;24.60;27.80
67196;DHT22;54122;53.538;49.366;2022-09-02T10:13:41;24.10;28.20
67196;DHT22;54122;53.538;49.366;2022-09-02T10:16:24;23.80;28.00
67196;DHT22;54122;53.538;49.366;2022-09-02T10:18:53;23.60;28.30
67196;DHT22;54122;53.538;49.366;2022-09-02T10:24:11;23.30;29.00
67196;DHT22;54122;53.538;49.366;2022-09-02T10:31:42;23.70;28.20
67196;DHT22;54122;53.538;49.366;2022-09-02T10:34:32;23.60;28.60
67196;DHT22;54122;53.538;49.366;2022-09-02T10:42:11;23.40;29.60
67196;DHT22;54122;53.538;49.366;2022-09-02T10:44:47;23.50;29.30
67196;DHT22;54122;53.538;49.366;2022-09-02T10:52:31;23.80;28.60
67196;DHT22;54122;53.538;49.366;2022-09-02T10:55:14;23.90;28.70
67196;DHT22;54122;53.538;49.366;2022-09-02T11:00:15;23.90;29.00
67196;DHT22;54122;53.538;49.366;2022-09-02T11:05:32;24.00;29.00
67196;DHT22;54122;53.538;49.366;2022-09-02T11:08:06;24.00;28.70
67196;DHT22;54122;53.538;49.366;2022-09-02T11:10:38;24.00;28.50
67196;DHT22;54122;53.538;49.366;2022-09-02T11:15:55;24.00;28.30
67196;DHT22;54122;53.538;49.366;2022-09-02T11:26:13;24.30;27.00
67196;DHT22;54122;53.538;49.366;2022-09-02T11:31:29;23.50;27.60
67196;DHT22;54122;53.538;49.366;2022-09-02T11:34:44;23.50;28.30
67196;DHT22;54122;53.538;49.366;2022-09-02T11:36:44;23.60;28.30
67196;DHT22;54122;53.538;49.366;2022-09-02T11:39:11;23.70;27.90
67196;DHT22;54122;53.538;49.366;2022-09-02T11:54:38;23.60;27.60
67196;DHT22;54122;53.538;49.366;2022-09-02T11:57:06;23.70;27.50
67196;DHT22;54122;53.538;49.366;2022-09-02T12:07:47;23.20;28.10
67196;DHT22;54122;53.538;49.366;2022-09-02T12:15:26;23.00;27.80
67196;DHT22;54122;53.538;49.366;2022-09-02T12:23:08;22.80;28.20
67196;DHT22;54122;53.538;49.366;2022-09-02T12:25:47;22.90;27.90
67196;DHT22;54122;53.538;49.366;2022-09-02T12:28:21;22.90;27.90
67196;DHT22;54122;53.538;49.366;2022-09-02T12:33:42;22.90;28.10
67196;DHT22;54122;53.538;49.366;2022-09-02T12:36:07;22.90;28.40
67196;DHT22;54122;53.538;49.366;2022-09-02T12:38:38;22.80;28.10
67196;DHT22;54122;53.538;49.366;2022-09-02T12:43:32;22.60;28.30
67196;DHT22;54122;53.538;49.366;2022-09-02T12:46:05;22.60;28.40
67196;DHT22;54122;53.538;49.366;2022-09-02T12:48:38;22.70;28.40
67196;DHT22;54122;53.538;49.366;2022-09-02T12:51:05;22.70;28.50
67196;DHT22;54122;53.538;49.366;2022-09-02T12:53:33;22.80;28.70
67196;DHT22;54122;53.538;49.366;2022-09-02T12:58:32;22.80;28.60
67196;DHT22;54122;53.538;49.366;2022-09-02T13:06:43;22.70;28.90
67196;DHT22;54122;53.538;49.366;2022-09-02T13:09:22;22.70;28.50
67196;DHT22;54122;53.538;49.366;2022-09-02T13:14:21;22.70;28.70
67196;DHT22;54122;53.538;49.366;2022-09-02T13:19:29;22.80;28.50
67196;DHT22;54122;53.538;49.366;2022-09-02T13:24:51;22.70;28.20
67196;DHT22;54122;53.538;49.366;2022-09-02T13:32:40;22.30;27.80
67196;DHT22;54122;53.538;49.366;2022-09-02T13:35:07;22.20;27.50
67196;DHT22;54122;53.538;49.366;2022-09-02T13:37:41;22.10;27.80
67196;DHT22;54122;53.538;49.366;2022-09-02T13:42:46;21.90;27.70
67196;DHT22;54122;53.538;49.366;2022-09-02T13:45:16;21.80;27.70
67196;DHT22;54122;53.538;49.366;2022-09-02T13:47:43;21.70;28.50
67196;DHT22;54122;53.538;49.366;2022-09-02T13:50:11;21.60;27.30
67196;DHT22;54122;53.538;49.366;2022-09-02T13:52:39;21.50;27.60
67196;DHT22;54122;53.538;49.366;2022-09-02T13:55:05;21.40;27.80
67196;DHT22;54122;53.538;49.366;2022-09-02T13:57:33;21.30;27.70
67196;DHT22;54122;53.538;49.366;2022-09-02T14:00:00;21.30;28.00
67196;DHT22;54122;53.538;49.366;2022-09-02T14:02:31;21.20;27.90
67196;DHT22;54122;53.538;49.366;2022-09-02T14:05:10;21.20;27.80
67196;DHT22;54122;53.538;49.366;2022-09-02T14:07:42;21.10;28.30
67196;DHT22;54122;53.538;49.366;2022-09-02T14:10:10;20.90;28.30
67196;DHT22;54122;53.538;49.366;2022-09-02T14:12:37;20.80;28.60
67196;DHT22;54122;53.538;49.366;2022-09-02T14:15:05;20.80;28.70
67196;DHT22;54122;53.538;49.366;2022-09-02T14:17:31;20.70;29.00
67196;DHT22;54122;53.538;49.366;2022-09-02T14:20:14;20.60;29.00
67196;DHT22;54122;53.538;49.366;2022-09-02T14:22:41;20.50;28.80
67196;DHT22;54122;53.538;49.366;2022-09-02T14:25:11;20.40;28.70
67196;DHT22;54122;53.538;49.366;2022-09-02T14:27:38;20.40;28.60
67196;DHT22;54122;53.538;49.366;2022-09-02T14:30:04;20.30;28.80
67196;DHT22;54122;53.538;49.366;2022-09-02T14:32:34;20.10;29.00
67196;DHT22;54122;53.538;49.366;2022-09-02T14:35:07;20.10;29.00
67196;DHT22;54122;53.538;49.366;2022-09-02T14:37:45;20.00;28.90
67196;DHT22;54122;53.538;49.366;2022-09-02T14:40:12;20.00;28.80
67196;DHT22;54122;53.538;49.366;2022-09-02T14:42:47;19.90;28.80
67196;DHT22;54122;53.538;49.366;2022-09-02T14:45:22;19.80;29.10
67196;DHT22;54122;53.538;49.366;2022-09-02T14:47:49;19.70;29.50
67196;DHT22;54122;53.538;49.366;2022-09-02T14:50:15;19.60;29.60
67196;DHT22;54122;53.538;49.366;2022-09-02T14:52:45;19.50;29.90
67196;DHT22;54122;53.538;49.366;2022-09-02T14:58:02;19.30;30.10
67196;DHT22;54122;53.538;49.366;2022-09-02T15:00:28;19.20;30.40
67196;DHT22;54122;53.538;49.366;2022-09-02T15:02:57;19.10;30.80
67196;DHT22;54122;53.538;49.366;2022-09-02T15:05:25;19.00;30.90
67196;DHT22;54122;53.538;49.366;2022-09-02T15:07:51;19.00;31.00
67196;DHT22;54122;53.538;49.366;2022-09-02T15:10:19;18.90;31.10
67196;DHT22;54122;53.538;49.366;2022-09-02T15:12:49;18.70;31.60
67196;DHT22;54122;53.538;49.366;2022-09-02T15:15:17;18.60;32.00
67196;DHT22;54122;53.538;49.366;2022-09-02T15:17:43;18.50;32.20
67196;DHT22;54122;53.538;49.366;2022-09-02T15:20:09;18.40;32.30
67196;DHT22;54122;53.538;49.366;2022-09-02T15:22:35;18.30;32.90
67196;DHT22;54122;53.538;49.366;2022-09-02T15:25:01;18.20;33.70
67196;DHT22;54122;53.538;49.366;2022-09-02T15:27:31;18.10;34.30
67196;DHT22;54122;53.538;49.366;2022-09-02T15:29:57;17.90;35.00
67196;DHT22;54122;53.538;49.366;2022-09-02T15:32:24;17.90;34.90
67196;DHT22;54122;53.538;49.366;2022-09-02T15:34:50;17.80;35.10
67196;DHT22;54122;53.538;49.366;2022-09-02T15:37:16;17.80;35.20
67196;DHT22;54122;53.538;49.366;2022-09-02T15:39:42;17.70;35.50
67196;DHT22;54122;53.538;49.366;2022-09-02T15:42:10;17.60;35.90
67196;DHT22;54122;53.538;49.366;2022-09-02T15:44:43;17.60;35.80
67196;DHT22;54122;53.538;49.366;2022-09-02T15:47:10;17.60;35.80
67196;DHT22;54122;53.538;49.366;2022-09-02T15:49:36;17.50;36.10
67196;DHT22;54122;53.538;49.366;2022-09-02T15:52:02;17.40;36.50
67196;DHT22;54122;53.538;49.366;2022-09-02T15:54:28;17.30;36.90
67196;DHT22;54122;53.538;49.366;2022-09-02T15:56:56;17.10;37.50
67196;DHT22;54122;53.538;49.366;2022-09-02T15:59:23;17.00;37.80
67196;DHT22;54122;53.538;49.366;2022-09-02T16:01:50;17.00;37.80
67196;DHT22;54122;53.538;49.366;2022-09-02T16:04:16;16.90;37.90
67196;DHT22;54122;53.538;49.366;2022-09-02T16:06:43;16.90;38.10
67196;DHT22;54122;53.538;49.366;2022-09-02T16:09:11;16.90;38.20
67196;DHT22;54122;53.538;49.366;2022-09-02T16:11:38;16.90;38.10
67196;DHT22;54122;53.538;49.366;2022-09-02T16:14:04;17.00;37.90
67196;DHT22;54122;53.538;49.366;2022-09-02T16:16:31;16.90;38.00
67196;DHT22;54122;53.538;49.366;2022-09-02T16:18:58;16.90;38.10
67196;DHT22;54122;53.538;49.366;2022-09-02T16:21:24;17.00;37.90
67196;DHT22;54122;53.538;49.366;2022-09-02T16:23:50;17.10;37.90
67196;DHT22;54122;53.538;49.366;2022-09-02T16:26:21;17.10;37.80
67196;DHT22;54122;53.538;49.366;2022-09-02T16:28:48;17.10;37.70
67196;DHT22;54122;53.538;49.366;2022-09-02T16:31:17;17.00;38.00
67196;DHT22;54122;53.538;49.366;2022-09-02T16:33:49;16.90;38.60
67196;DHT22;54122;53.538;49.366;2022-09-02T16:36:15;16.90;38.70
67196;DHT22;54122;53.538;49.366;2022-09-02T16:38:41;16.80;38.60
67196;DHT22;54122;53.538;49.366;2022-09-02T16:41:15;16.90;38.40
67196;DHT22;54122;53.538;49.366;2022-09-02T16:43:46;16.90;38.20
67196;DHT22;54122;53.538;49.366;2022-09-02T16:46:13;16.90;38.20
67196;DHT22;54122;53.538;49.366;2022-09-02T16:48:39;16.90;38.30
67196;DHT22;54122;53.538;49.366;2022-09-02T16:51:05;16.90;38.20
67196;DHT22;54122;53.538;49.366;2022-09-02T16:53:31;17.00;38.10
67196;DHT22;54122;53.538;49.366;2022-09-02T16:55:57;17.00;38.30
67196;DHT22;54122;53.538;49.366;2022-09-02T16:58:23;16.90;38.40
67196;DHT22;54122;53.538;49.366;2022-09-02T17:00:50;16.90;38.30
67196;DHT22;54122;53.538;49.366;2022-09-02T17:03:17;16.80;38.30
67196;DHT22;54122;53.538;49.366;2022-09-02T17:05:43;16.80;38.30
67196;DHT22;54122;53.538;49.366;2022-09-02T17:08:10;16.80;38.30
67196;DHT22;54122;53.538;49.366;2022-09-02T17:10:37;16.70;38.50
67196;DHT22;54122;53.538;49.366;2022-09-02T17:13:04;16.70;38.80
67196;DHT22;54122;53.538;49.366;2022-09-02T17:15:30;16.60;38.60
67196;DHT22;54122;53.538;49.366;2022-09-02T17:17:56;16.50;38.70
67196;DHT22;54122;53.538;49.366;2022-09-02T17:20:22;16.50;38.80